createdAt,value
2022-09-13T00:02:21.490Z,5.38
2022-09-13T00:04:49.303Z,5.88
2022-09-13T00:07:16.976Z,5.50
2022-09-13T00:09:46.017Z,5.68
2022-09-13T00:12:13.733Z,5.90
2022-09-13T00:14:41.469Z,5.65
2022-09-13T00:17:09.269Z,5.80
2022-09-13T00:19:37.264Z,6.20
2022-09-13T00:22:06.375Z,6.95
2022-09-13T00:24:36.085Z,6.45
2022-09-13T00:27:05.626Z,6.28
2022-09-13T00:29:33.588Z,8.02
2022-09-13T00:32:01.384Z,6.85
2022-09-13T00:34:29.333Z,7.63
2022-09-13T00:36:57.378Z,7.18
2022-09-13T00:39:25.069Z,6.65
2022-09-13T00:41:52.823Z,6.85
2022-09-13T00:44:50.907Z,6.78
2022-09-13T00:47:22.196Z,6.88
2022-09-13T00:49:51.574Z,6.40
2022-09-13T00:52:21.976Z,7.07
2022-09-13T00:54:54.395Z,6.63
2022-09-13T00:57:23.563Z,6.72
2022-09-13T00:59:56.025Z,7.40
2022-09-13T01:02:23.938Z,6.30
2022-09-13T01:04:51.739Z,6.70
2022-09-13T01:07:19.796Z,6.55
2022-09-13T01:09:50.119Z,6.93
2022-09-13T01:12:25.107Z,6.78
2022-09-13T01:14:54.392Z,6.65
2022-09-13T01:17:22.032Z,6.43
2022-09-13T01:19:49.804Z,6.47
2022-09-13T01:22:32.709Z,6.32
2022-09-13T01:25:31.431Z,6.90
2022-09-13T01:28:14.009Z,6.53
2022-09-13T01:30:44.323Z,7.22
2022-09-13T01:33:27.697Z,6.85
2022-09-13T01:36:20.837Z,6.35
2022-09-13T01:38:57.741Z,6.30
2022-09-13T01:41:42.823Z,5.78
2022-09-13T01:44:17.096Z,6.22
2022-09-13T01:46:50.896Z,6.25
2022-09-13T01:49:21.432Z,6.47
2022-09-13T01:51:52.100Z,5.93
2022-09-13T01:54:22.872Z,6.15
2022-09-13T01:56:55.525Z,5.75
2022-09-13T01:59:25.748Z,6.15
2022-09-13T02:01:58.460Z,6.40
2022-09-13T02:04:29.002Z,6.43
2022-09-13T02:07:01.971Z,6.32
2022-09-13T02:09:32.338Z,6.63
2022-09-13T02:12:05.792Z,6.22
2022-09-13T02:14:37.334Z,6.65
2022-09-13T02:17:08.846Z,6.25
2022-09-13T02:19:37.732Z,7.07
2022-09-13T02:22:07.907Z,7.00
2022-09-13T02:24:39.032Z,6.50
2022-09-13T02:27:09.305Z,6.95
2022-09-13T02:29:39.565Z,6.53
2022-09-13T02:32:12.018Z,6.10
2022-09-13T02:34:42.052Z,6.00
2022-09-13T02:37:11.186Z,6.05
2022-09-13T02:39:42.865Z,6.25
2022-09-13T02:42:15.448Z,6.70
2022-09-13T02:44:44.915Z,6.60
2022-09-13T02:47:25.689Z,6.20
2022-09-13T02:49:57.640Z,6.43
2022-09-13T02:52:34.716Z,6.95
2022-09-13T02:55:09.297Z,6.82
2022-09-13T02:57:39.715Z,6.78
2022-09-13T03:00:08.771Z,7.45
2022-09-13T03:02:39.501Z,7.38
2022-09-13T03:05:07.549Z,8.07
2022-09-13T03:07:35.207Z,7.70
2022-09-13T03:10:06.859Z,7.15
2022-09-13T03:12:49.888Z,8.07
2022-09-13T03:15:25.821Z,8.25
2022-09-13T03:18:01.477Z,8.45
2022-09-13T03:20:37.954Z,8.35
2022-09-13T03:23:33.215Z,8.75
2022-09-13T03:26:13.523Z,8.95
2022-09-13T03:28:47.740Z,8.48
2022-09-13T03:31:21.312Z,8.30
2022-09-13T03:33:55.556Z,8.60
2022-09-13T03:36:27.697Z,9.38
2022-09-13T03:38:58.769Z,8.93
2022-09-13T03:41:30.962Z,9.40
2022-09-13T03:44:02.393Z,9.13
2022-09-13T03:46:33.546Z,9.23
2022-09-13T03:49:04.974Z,9.45
2022-09-13T03:51:33.712Z,9.90
2022-09-13T03:54:04.368Z,9.45
2022-09-13T03:56:32.373Z,10.68
2022-09-13T03:59:00.078Z,10.50
2022-09-13T04:01:28.138Z,11.15
2022-09-13T04:03:57.166Z,10.95
2022-09-13T04:06:26.335Z,12.57
2022-09-13T04:08:54.111Z,14.23
2022-09-13T04:11:22.165Z,12.90
2022-09-13T04:13:50.473Z,14.45
2022-09-13T04:16:18.246Z,14.27
2022-09-13T04:18:46.431Z,15.40
2022-09-13T04:21:14.316Z,15.43
2022-09-13T04:23:43.659Z,14.82
2022-09-13T04:26:11.469Z,14.57
2022-09-13T04:28:39.144Z,15.02
2022-09-13T04:31:06.873Z,15.63
2022-09-13T04:33:34.400Z,15.90
2022-09-13T04:36:02.488Z,14.95
2022-09-13T04:38:31.933Z,16.77
2022-09-13T04:41:00.807Z,15.88
2022-09-13T04:43:28.301Z,21.20
2022-09-13T04:45:55.836Z,21.42
2022-09-13T04:48:23.487Z,19.85
2022-09-13T04:50:51.054Z,18.45
2022-09-13T04:53:18.545Z,18.65
2022-09-13T04:55:46.170Z,19.55
2022-09-13T04:58:15.457Z,20.10
2022-09-13T05:00:43.443Z,19.52
2022-09-13T05:03:11.030Z,20.90
2022-09-13T05:05:38.736Z,19.48
2022-09-13T05:08:06.451Z,20.30
2022-09-13T05:10:33.975Z,19.77
2022-09-13T05:13:01.525Z,19.73
2022-09-13T05:15:30.563Z,19.85
2022-09-13T05:17:58.296Z,19.55
2022-09-13T05:20:25.906Z,20.52
2022-09-13T05:22:53.596Z,20.13
2022-09-13T05:25:25.868Z,19.33
2022-09-13T05:27:53.802Z,19.95
2022-09-13T05:30:21.776Z,20.33
2022-09-13T05:32:50.832Z,21.50
2022-09-13T05:35:18.518Z,19.55
2022-09-13T05:37:46.192Z,19.45
2022-09-13T05:40:13.865Z,19.65
2022-09-13T05:42:41.898Z,19.55
2022-09-13T05:45:10.412Z,20.45
2022-09-13T05:47:38.248Z,20.33
2022-09-13T05:50:11.827Z,20.30
2022-09-13T05:52:41.610Z,20.17
2022-09-13T05:55:09.649Z,20.27
2022-09-13T05:57:38.149Z,20.67
2022-09-13T06:00:06.669Z,20.23
2022-09-13T06:02:40.218Z,21.20
2022-09-13T06:05:10.439Z,21.25
2022-09-13T06:07:40.577Z,21.52
2022-09-13T06:10:09.424Z,21.13
2022-09-13T06:12:37.107Z,21.48
2022-09-13T06:15:05.491Z,21.65
2022-09-13T06:17:33.169Z,22.05
2022-09-13T06:20:00.849Z,20.90
2022-09-13T06:22:33.227Z,21.35
2022-09-13T06:25:00.976Z,20.75
2022-09-13T06:27:30.553Z,20.20
2022-09-13T06:29:58.229Z,18.90
2022-09-13T06:32:26.416Z,20.17
2022-09-13T06:34:54.067Z,19.98
2022-09-13T06:37:21.953Z,19.45
2022-09-13T06:39:51.065Z,19.88
2022-09-13T06:42:18.746Z,20.00
2022-09-13T06:44:48.458Z,20.23
2022-09-13T06:47:16.154Z,20.00
2022-09-13T06:49:44.044Z,19.23
2022-09-13T06:52:11.755Z,21.42
2022-09-13T06:54:39.401Z,20.17
2022-09-13T06:57:09.921Z,19.17
2022-09-13T06:59:37.762Z,16.23
2022-09-13T07:02:05.500Z,14.75
2022-09-13T07:04:33.545Z,13.65
2022-09-13T07:07:01.164Z,11.77
2022-09-13T07:09:29.001Z,11.38
2022-09-13T07:11:57.289Z,10.80
2022-09-13T07:14:27.968Z,9.73
2022-09-13T07:16:56.321Z,8.23
2022-09-13T07:19:26.358Z,7.80
2022-09-13T07:21:54.972Z,7.55
2022-09-13T07:24:23.355Z,6.03
2022-09-13T07:26:51.351Z,5.95
2022-09-13T07:29:22.508Z,3.30
2022-09-13T07:31:54.099Z,2.88
2022-09-13T07:34:23.420Z,2.72
2022-09-13T07:36:52.456Z,2.45
2022-09-13T07:39:23.069Z,2.30
2022-09-13T07:41:51.326Z,2.90
2022-09-13T07:44:18.951Z,2.17
2022-09-13T07:46:46.668Z,2.10
2022-09-13T07:49:18.079Z,2.00
2022-09-13T07:51:46.197Z,2.10
2022-09-13T07:54:16.001Z,2.08
2022-09-13T07:56:44.015Z,2.40
2022-09-13T07:59:13.268Z,2.00
2022-09-13T08:01:42.511Z,2.20
2022-09-13T08:04:11.414Z,2.15
2022-09-13T08:06:43.252Z,2.22
2022-09-13T08:09:11.596Z,2.10
2022-09-13T08:11:41.294Z,2.40
2022-09-13T08:14:10.690Z,2.25
2022-09-13T08:16:39.299Z,2.90
2022-09-13T08:19:08.609Z,2.50
2022-09-13T08:21:38.120Z,2.80
2022-09-13T08:24:08.736Z,3.00
2022-09-13T08:26:37.482Z,2.30
2022-09-13T08:29:07.004Z,3.20
2022-09-13T08:31:35.832Z,2.58
2022-09-13T08:34:03.498Z,2.28
2022-09-13T08:36:31.678Z,2.30
2022-09-13T08:39:00.573Z,2.22
2022-09-13T08:42:00.421Z,2.60
2022-09-13T08:44:29.531Z,3.00
2022-09-13T08:47:03.258Z,2.80
2022-09-13T08:49:33.544Z,2.90
2022-09-13T08:52:05.210Z,3.05
2022-09-13T08:54:33.640Z,3.13
2022-09-13T08:57:06.797Z,3.15
2022-09-13T08:59:46.328Z,3.10
2022-09-13T09:02:24.643Z,3.35
2022-09-13T09:04:57.808Z,3.50
2022-09-13T09:07:28.412Z,3.38
2022-09-13T09:09:57.981Z,3.70
2022-09-13T09:12:34.314Z,3.50
2022-09-13T09:15:06.344Z,3.40
2022-09-13T09:17:41.664Z,3.60
2022-09-13T09:20:20.221Z,3.80
2022-09-13T09:22:49.062Z,4.03
2022-09-13T09:25:17.221Z,2.67
2022-09-13T09:27:46.802Z,2.72
2022-09-13T09:30:15.392Z,3.20
2022-09-13T09:33:03.561Z,2.88
2022-09-13T09:35:43.673Z,2.95
2022-09-13T09:38:41.119Z,3.20
2022-09-13T09:41:16.144Z,3.00
2022-09-13T09:43:48.474Z,2.78
2022-09-13T09:46:17.820Z,2.90
2022-09-13T09:48:49.981Z,2.80
2022-09-13T09:51:20.029Z,3.08
2022-09-13T09:53:50.512Z,3.20
2022-09-13T09:56:24.325Z,3.30
2022-09-13T09:58:54.404Z,3.20
2022-09-13T10:01:25.782Z,3.60
2022-09-13T10:04:03.481Z,3.63
2022-09-13T10:06:32.167Z,3.85
2022-09-13T10:09:02.013Z,3.20
2022-09-13T10:11:44.511Z,3.38
2022-09-13T10:14:33.131Z,3.30
2022-09-13T10:17:06.262Z,3.55
2022-09-13T10:19:34.232Z,3.53
2022-09-13T10:22:03.919Z,3.63
2022-09-13T10:24:31.656Z,3.50
2022-09-13T10:27:00.632Z,3.33
2022-09-13T10:29:30.922Z,3.22
2022-09-13T10:32:01.173Z,3.35
2022-09-13T10:34:30.895Z,3.47
2022-09-13T10:37:00.827Z,3.20
2022-09-13T10:39:30.622Z,3.25
2022-09-13T10:42:01.361Z,3.80
2022-09-13T10:44:35.219Z,3.00
2022-09-13T10:47:05.034Z,3.95
2022-09-13T10:49:41.493Z,3.78
2022-09-13T10:52:32.778Z,3.17
2022-09-13T10:55:25.545Z,3.17
2022-09-13T10:57:54.581Z,3.05
2022-09-13T11:00:31.143Z,3.45
2022-09-13T11:03:12.260Z,3.60
2022-09-13T11:05:43.544Z,3.45
2022-09-13T11:08:26.944Z,3.60
2022-09-13T11:11:02.549Z,3.30
2022-09-13T11:13:44.494Z,3.95
2022-09-13T11:16:24.848Z,3.65
2022-09-13T11:19:08.864Z,3.47
2022-09-13T11:21:47.060Z,3.60
2022-09-13T11:24:30.273Z,3.10
2022-09-13T11:27:02.010Z,2.88
2022-09-13T11:29:41.420Z,3.35
2022-09-13T11:32:20.289Z,3.17
2022-09-13T11:34:57.952Z,3.40
2022-09-13T11:37:39.055Z,3.95
2022-09-13T11:40:21.986Z,3.20
2022-09-13T11:42:55.078Z,3.00
2022-09-13T11:45:25.679Z,3.10
2022-09-13T11:48:27.063Z,3.03
2022-09-13T11:50:59.377Z,3.10
2022-09-13T11:53:50.163Z,3.17
2022-09-13T11:56:22.802Z,3.28
2022-09-13T11:58:53.347Z,3.50
2022-09-13T12:01:24.801Z,3.15
2022-09-13T12:03:58.731Z,3.22
2022-09-13T12:06:29.258Z,3.33
2022-09-13T12:08:59.127Z,3.40
2022-09-13T12:11:30.209Z,4.00
2022-09-13T12:14:00.950Z,3.17
2022-09-13T12:16:36.091Z,3.20
2022-09-13T12:19:09.110Z,3.70
2022-09-13T12:21:39.189Z,3.60
2022-09-13T12:24:16.720Z,3.60
2022-09-13T12:26:49.525Z,3.30
2022-09-13T12:29:20.341Z,3.20
2022-09-13T12:31:48.148Z,2.97
2022-09-13T12:34:23.353Z,3.70
2022-09-13T12:37:08.821Z,3.50
2022-09-13T12:39:44.870Z,3.00
2022-09-13T12:42:29.713Z,2.95
2022-09-13T12:45:10.309Z,3.40
2022-09-13T12:48:23.543Z,3.03
2022-09-13T12:51:09.272Z,3.20
2022-09-13T12:53:55.835Z,3.00
2022-09-13T12:56:57.209Z,3.38
2022-09-13T12:59:38.904Z,2.83
2022-09-13T13:02:28.297Z,3.00
2022-09-13T13:04:58.782Z,3.30
2022-09-13T13:07:28.757Z,3.20
2022-09-13T13:09:57.874Z,3.40
2022-09-13T13:12:31.871Z,3.30
2022-09-13T13:15:00.615Z,3.05
2022-09-13T13:17:44.879Z,3.33
2022-09-13T13:20:46.907Z,2.47
2022-09-13T13:23:23.688Z,3.28
2022-09-13T13:26:05.583Z,3.08
2022-09-13T13:29:15.551Z,2.63
2022-09-13T13:32:08.283Z,2.53
2022-09-13T13:34:43.187Z,2.75
2022-09-13T13:37:34.634Z,2.90
2022-09-13T13:40:30.907Z,2.80
2022-09-13T13:43:30.119Z,2.92
2022-09-13T13:46:17.844Z,2.80
2022-09-13T13:48:45.522Z,2.83
2022-09-13T13:51:18.386Z,3.92
2022-09-13T13:53:49.875Z,33.55
2022-09-13T13:56:26.589Z,3.20
2022-09-13T13:58:58.068Z,2.92
2022-09-13T14:01:28.195Z,3.70
2022-09-13T14:04:47.327Z,3.70
2022-09-13T14:07:44.897Z,2.40
2022-09-13T14:10:15.717Z,2.83
2022-09-13T14:12:57.425Z,2.55
2022-09-13T14:15:39.447Z,3.58
2022-09-13T14:18:44.099Z,4.43
2022-09-13T14:21:21.171Z,3.78
2022-09-13T14:23:48.921Z,3.95
2022-09-13T14:26:16.796Z,20.63
2022-09-13T14:28:45.884Z,15.38
2022-09-13T14:31:20.228Z,3.60
2022-09-13T14:33:48.662Z,3.90
2022-09-13T14:36:19.221Z,3.95
2022-09-13T14:38:54.406Z,3.70
2022-09-13T14:41:30.307Z,3.53
2022-09-13T14:44:22.504Z,4.15
2022-09-13T14:46:54.558Z,3.90
2022-09-13T14:49:25.720Z,3.58
2022-09-13T14:51:56.682Z,3.63
2022-09-13T14:54:30.882Z,4.22
2022-09-13T14:57:00.427Z,3.80
2022-09-13T14:59:31.903Z,4.07
2022-09-13T15:02:03.010Z,3.88
2022-09-13T15:04:31.148Z,3.80
2022-09-13T15:07:10.344Z,3.85
2022-09-13T15:09:38.652Z,3.75
2022-09-13T15:12:22.968Z,3.95
2022-09-13T15:15:21.011Z,3.55
2022-09-13T15:17:53.979Z,3.72
2022-09-13T15:20:22.889Z,3.38
2022-09-13T15:22:53.512Z,2.92
2022-09-13T15:25:24.017Z,3.28
2022-09-13T15:27:52.252Z,2.65
2022-09-13T15:30:29.842Z,2.70
2022-09-13T15:33:15.846Z,2.92
2022-09-13T15:35:44.796Z,2.88
2022-09-13T15:38:19.228Z,3.33
2022-09-13T15:40:48.599Z,2.70
2022-09-13T15:43:16.257Z,3.53
2022-09-13T15:45:46.298Z,2.60
2022-09-13T15:48:22.905Z,2.72
2022-09-13T15:51:06.139Z,2.60
2022-09-13T15:53:34.037Z,2.40
2022-09-13T15:56:02.618Z,2.03
2022-09-13T15:58:30.529Z,2.15
2022-09-13T16:00:59.925Z,5.85
2022-09-13T16:03:27.805Z,7.45
2022-09-13T16:05:55.650Z,2.88
2022-09-13T16:08:24.265Z,2.58
2022-09-13T16:10:52.273Z,2.13
2022-09-13T16:13:19.925Z,2.30
2022-09-13T16:15:47.673Z,2.28
2022-09-13T16:18:17.365Z,2.17
2022-09-13T16:20:45.513Z,3.10
2022-09-13T16:23:13.282Z,2.28
2022-09-13T16:25:41.039Z,2.35
2022-09-13T16:28:08.805Z,2.90
2022-09-13T16:30:36.809Z,2.30
2022-09-13T16:33:04.710Z,2.50
2022-09-13T16:35:34.153Z,2.00
2022-09-13T16:38:01.853Z,2.20
2022-09-13T16:40:29.693Z,1.98
2022-09-13T16:42:57.497Z,2.03
2022-09-13T16:45:25.592Z,1.90
2022-09-13T16:47:53.247Z,2.30
2022-09-13T16:50:20.940Z,1.95
2022-09-13T16:52:49.952Z,2.35
2022-09-13T16:55:17.920Z,2.03
2022-09-13T16:57:48.148Z,1.92
2022-09-13T17:00:19.968Z,2.38
2022-09-13T17:02:47.819Z,1.80
2022-09-13T17:05:15.830Z,6.63
2022-09-13T17:07:43.647Z,7.57
2022-09-13T17:10:13.367Z,3.47
2022-09-13T17:12:41.196Z,3.45
2022-09-13T17:15:09.313Z,3.00
2022-09-13T17:17:37.157Z,2.72
2022-09-13T17:20:07.774Z,2.90
2022-09-13T17:22:35.570Z,2.50
2022-09-13T17:25:03.470Z,2.80
2022-09-13T17:27:32.584Z,2.67
2022-09-13T17:30:02.194Z,2.70
2022-09-13T17:32:30.403Z,3.33
2022-09-13T17:34:58.303Z,2.95
2022-09-13T17:37:26.240Z,3.65
2022-09-13T17:39:54.016Z,3.80
2022-09-13T17:42:23.545Z,3.50
2022-09-13T17:44:52.737Z,4.10
2022-09-13T17:47:20.571Z,4.28
2022-09-13T17:49:48.249Z,3.50
2022-09-13T17:52:16.008Z,3.72
2022-09-13T17:54:43.834Z,3.30
2022-09-13T17:57:11.795Z,3.00
2022-09-13T17:59:39.521Z,3.00
2022-09-13T18:02:10.191Z,3.50
2022-09-13T18:04:37.919Z,3.08
2022-09-13T18:07:06.520Z,3.05
2022-09-13T18:09:35.040Z,2.70
2022-09-13T18:12:03.279Z,21.98
2022-09-13T18:14:32.748Z,5.32
2022-09-13T18:17:00.497Z,3.55
2022-09-13T18:19:45.331Z,3.30
2022-09-13T18:22:14.463Z,3.40
2022-09-13T18:24:42.349Z,3.40
2022-09-13T18:27:10.061Z,3.17
2022-09-13T18:29:38.099Z,3.10
2022-09-13T18:32:06.051Z,4.18
2022-09-13T18:34:35.128Z,3.22
2022-09-13T18:37:02.880Z,2.90
2022-09-13T18:39:30.739Z,3.03
2022-09-13T18:41:58.532Z,3.00
2022-09-13T18:44:30.196Z,3.20
2022-09-13T18:46:58.121Z,3.55
2022-09-13T18:49:25.765Z,3.13
2022-09-13T18:51:54.926Z,3.40
2022-09-13T18:54:22.654Z,3.70
2022-09-13T18:56:50.616Z,3.00
2022-09-13T18:59:18.356Z,3.40
2022-09-13T19:01:46.494Z,3.17
2022-09-13T19:04:16.204Z,3.13
2022-09-13T19:06:45.791Z,3.67
2022-09-13T19:09:15.379Z,2.60
2022-09-13T19:11:47.683Z,2.30
2022-09-13T19:14:17.237Z,2.20
2022-09-13T19:16:45.035Z,2.47
2022-09-13T19:19:13.012Z,2.20
2022-09-13T19:21:40.708Z,2.13
2022-09-13T19:24:16.225Z,2.15
2022-09-13T19:26:46.797Z,2.28
2022-09-13T19:29:15.924Z,2.47
2022-09-13T19:31:47.385Z,2.13
2022-09-13T19:34:15.264Z,2.10
2022-09-13T19:36:44.168Z,2.05
2022-09-13T19:39:12.599Z,1.85
2022-09-13T19:41:41.556Z,2.28
2022-09-13T19:44:12.965Z,2.50
2022-09-13T19:46:41.920Z,2.97
2022-09-13T19:49:13.403Z,2.10
2022-09-13T19:51:42.091Z,2.13
2022-09-13T19:54:12.405Z,2.35
2022-09-13T19:56:42.665Z,2.35
2022-09-13T19:59:13.755Z,2.40
2022-09-13T20:01:43.404Z,2.00
2022-09-13T20:04:12.826Z,2.00
2022-09-13T20:06:41.955Z,1.90
2022-09-13T20:09:10.348Z,2.20
2022-09-13T20:11:42.500Z,2.15
2022-09-13T20:14:12.491Z,2.28
2022-09-13T20:16:41.258Z,2.10
2022-09-13T20:19:36.509Z,1.92
2022-09-13T20:21:57.963Z,2.00
2022-09-13T20:24:26.084Z,2.00
2022-09-13T20:26:53.892Z,1.70
2022-09-13T20:29:23.310Z,1.75
2022-09-13T20:31:51.016Z,1.88
2022-09-13T20:34:19.129Z,2.00
2022-09-13T20:36:47.167Z,1.77
2022-09-13T20:39:16.213Z,1.70
2022-09-13T20:41:45.224Z,1.85
2022-09-13T20:44:13.342Z,2.00
2022-09-13T20:46:42.888Z,2.13
2022-09-13T20:49:11.666Z,2.20
2022-09-13T20:51:39.598Z,1.60
2022-09-13T20:54:08.207Z,1.60
2022-09-13T20:56:36.713Z,1.50
2022-09-13T20:59:05.571Z,1.50
2022-09-13T21:01:33.832Z,1.33
2022-09-13T21:04:03.808Z,1.40
2022-09-13T21:06:32.969Z,1.45
2022-09-13T21:08:59.883Z,1.55
2022-09-13T21:11:30.234Z,1.58
2022-09-13T21:14:00.447Z,1.63
2022-09-13T21:16:29.805Z,1.42
2022-09-13T21:18:58.143Z,1.50
2022-09-13T21:21:29.725Z,1.45
2022-09-13T21:23:58.017Z,1.20
2022-09-13T21:26:27.768Z,1.63
2022-09-13T21:28:56.409Z,1.85
2022-09-13T21:31:26.327Z,1.50
2022-09-13T21:33:54.849Z,1.35
2022-09-13T21:36:23.052Z,1.30
2022-09-13T21:38:54.190Z,1.50
2022-09-13T21:41:21.921Z,1.90
2022-09-13T21:43:50.176Z,1.35
2022-09-13T21:46:19.578Z,1.42
2022-09-13T21:48:50.352Z,1.50
2022-09-13T21:51:20.037Z,1.60
2022-09-13T21:53:49.244Z,1.83
2022-09-13T21:56:19.537Z,1.92
2022-09-13T21:58:50.545Z,2.00
2022-09-13T22:01:19.598Z,2.40
2022-09-13T22:03:47.684Z,1.30
2022-09-13T22:06:16.285Z,1.45
2022-09-13T22:08:46.783Z,1.65
2022-09-13T22:11:16.368Z,1.60
2022-09-13T22:13:47.433Z,1.40
2022-09-13T22:16:18.068Z,1.88
2022-09-13T22:18:46.582Z,1.60
2022-09-13T22:21:16.881Z,1.38
2022-09-13T22:23:44.800Z,1.73
2022-09-13T22:26:14.307Z,1.70
2022-09-13T22:28:42.275Z,1.73
2022-09-13T22:31:16.724Z,1.70
2022-09-13T22:33:44.778Z,1.48
2022-09-13T22:36:14.109Z,2.22
2022-09-13T22:38:43.202Z,1.80
2022-09-13T22:41:12.807Z,1.88
2022-09-13T22:43:41.107Z,1.73
2022-09-13T22:46:11.878Z,2.25
2022-09-13T22:48:40.505Z,1.70
2022-09-13T22:51:09.189Z,1.73
2022-09-13T22:53:39.056Z,1.60
2022-09-13T22:56:08.999Z,2.08
2022-09-13T22:58:36.740Z,2.10
2022-09-13T23:01:06.352Z,2.10
2022-09-13T23:03:37.633Z,1.95
2022-09-13T23:06:05.837Z,2.00
2022-09-13T23:08:33.758Z,2.13
2022-09-13T23:11:09.722Z,2.03
2022-09-13T23:13:37.812Z,2.10
2022-09-13T23:16:06.741Z,1.98
2022-09-13T23:18:36.500Z,1.90
2022-09-13T23:21:04.337Z,1.90
2022-09-13T23:23:32.205Z,2.10
2022-09-13T23:26:04.729Z,2.10
2022-09-13T23:28:32.456Z,1.80
2022-09-13T23:31:09.039Z,1.92
2022-09-13T23:33:40.273Z,2.40
2022-09-13T23:36:08.525Z,1.77
2022-09-13T23:38:36.569Z,1.73
2022-09-13T23:41:04.533Z,2.10
2022-09-13T23:43:32.715Z,1.90
2022-09-13T23:46:00.474Z,1.92
2022-09-13T23:48:28.296Z,1.80
2022-09-13T23:51:01.649Z,1.95
2022-09-13T23:53:30.016Z,1.58
2022-09-13T23:55:58.073Z,1.90
2022-09-13T23:58:26.124Z,1.77
